sensor_id;sensor_type;location;lat;lon;timestamp;pressure;altitude;pressure_sealevel;temperature;humidity
48874;BME280;66155;46.204;5.220;2023-05-07T00:04:38;98458.81;;;20.09;56.09
48874;BME280;66155;46.204;5.220;2023-05-07T00:09:39;98467.09;;;19.99;56.15
48874;BME280;66155;46.204;5.220;2023-05-07T00:14:40;98478.00;;;19.97;55.60
48874;BME280;66155;46.204;5.220;2023-05-07T00:19:40;98497.88;;;20.03;55.02
48874;BME280;66155;46.204;5.220;2023-05-07T00:24:41;98498.19;;;20.10;54.53
48874;BME280;66155;46.204;5.220;2023-05-07T00:29:41;98492.44;;;20.08;54.00
48874;BME280;66155;46.204;5.220;2023-05-07T00:34:43;98498.94;;;20.11;53.70
48874;BME280;66155;46.204;5.220;2023-05-07T00:39:43;98514.81;;;20.11;53.14
48874;BME280;66155;46.204;5.220;2023-05-07T00:44:44;98517.97;;;20.04;52.40
48874;BME280;66155;46.204;5.220;2023-05-07T00:49:45;98511.41;;;19.93;51.81
48874;BME280;66155;46.204;5.220;2023-05-07T00:54:45;98521.22;;;19.84;51.49
48874;BME280;66155;46.204;5.220;2023-05-07T00:59:46;98526.19;;;19.77;50.68
48874;BME280;66155;46.204;5.220;2023-05-07T01:04:46;98557.72;;;19.73;50.21
48874;BME280;66155;46.204;5.220;2023-05-07T01:09:47;98575.28;;;19.51;50.70
48874;BME280;66155;46.204;5.220;2023-05-07T01:14:47;98584.09;;;19.38;51.70
48874;BME280;66155;46.204;5.220;2023-05-07T01:19:50;98597.09;;;19.17;53.33
48874;BME280;66155;46.204;5.220;2023-05-07T01:24:50;98600.59;;;19.04;54.87
48874;BME280;66155;46.204;5.220;2023-05-07T01:29:51;98600.38;;;18.91;55.94
48874;BME280;66155;46.204;5.220;2023-05-07T01:34:52;98596.38;;;18.94;55.27
48874;BME280;66155;46.204;5.220;2023-05-07T01:39:54;98593.59;;;18.99;56.57
48874;BME280;66155;46.204;5.220;2023-05-07T01:44:55;98613.16;;;18.98;56.69
48874;BME280;66155;46.204;5.220;2023-05-07T01:49:55;98600.78;;;19.07;56.13
48874;BME280;66155;46.204;5.220;2023-05-07T01:54:56;98601.00;;;19.28;55.38
48874;BME280;66155;46.204;5.220;2023-05-07T01:59:56;98599.50;;;19.45;55.45
48874;BME280;66155;46.204;5.220;2023-05-07T02:04:57;98590.81;;;19.53;55.47
48874;BME280;66155;46.204;5.220;2023-05-07T02:09:57;98592.38;;;19.63;55.12
48874;BME280;66155;46.204;5.220;2023-05-07T02:14:58;98579.97;;;19.72;54.93
48874;BME280;66155;46.204;5.220;2023-05-07T02:19:58;98569.91;;;19.74;55.15
48874;BME280;66155;46.204;5.220;2023-05-07T02:24:59;98570.06;;;19.78;55.18
48874;BME280;66155;46.204;5.220;2023-05-07T02:29:59;98572.41;;;19.79;55.17
48874;BME280;66155;46.204;5.220;2023-05-07T02:35:00;98571.59;;;19.79;55.11
48874;BME280;66155;46.204;5.220;2023-05-07T02:40:01;98565.41;;;19.83;55.05
48874;BME280;66155;46.204;5.220;2023-05-07T02:45:01;98545.78;;;19.84;54.91
48874;BME280;66155;46.204;5.220;2023-05-07T02:50:02;98556.69;;;19.83;54.37
48874;BME280;66155;46.204;5.220;2023-05-07T02:55:03;98561.19;;;19.82;54.30
48874;BME280;66155;46.204;5.220;2023-05-07T03:00:19;98549.69;;;19.78;54.10
48874;BME280;66155;46.204;5.220;2023-05-07T03:05:20;98530.25;;;19.74;54.02
48874;BME280;66155;46.204;5.220;2023-05-07T03:10:21;98534.44;;;19.75;53.76
48874;BME280;66155;46.204;5.220;2023-05-07T03:15:21;98561.81;;;19.79;53.32
48874;BME280;66155;46.204;5.220;2023-05-07T03:20:22;98548.91;;;19.78;53.01
48874;BME280;66155;46.204;5.220;2023-05-07T03:25:22;98540.19;;;19.77;52.90
48874;BME280;66155;46.204;5.220;2023-05-07T03:30:23;98545.78;;;19.84;52.35
48874;BME280;66155;46.204;5.220;2023-05-07T03:35:24;98566.63;;;19.86;52.21
48874;BME280;66155;46.204;5.220;2023-05-07T03:40:24;98562.13;;;19.86;52.06
48874;BME280;66155;46.204;5.220;2023-05-07T03:45:25;98563.06;;;19.90;51.96
48874;BME280;66155;46.204;5.220;2023-05-07T03:50:26;98543.13;;;19.84;51.88
48874;BME280;66155;46.204;5.220;2023-05-07T03:55:26;98518.28;;;19.77;52.56
48874;BME280;66155;46.204;5.220;2023-05-07T04:00:27;98503.47;;;19.58;52.82
48874;BME280;66155;46.204;5.220;2023-05-07T04:05:27;98502.84;;;19.44;53.50
48874;BME280;66155;46.204;5.220;2023-05-07T04:10:29;98514.03;;;19.41;54.03
48874;BME280;66155;46.204;5.220;2023-05-07T04:15:30;98550.69;;;19.42;54.18
48874;BME280;66155;46.204;5.220;2023-05-07T04:20:33;98580.91;;;19.10;55.12
48874;BME280;66155;46.204;5.220;2023-05-07T04:25:34;98601.34;;;18.73;56.75
48874;BME280;66155;46.204;5.220;2023-05-07T04:30:35;98607.53;;;18.46;56.88
48874;BME280;66155;46.204;5.220;2023-05-07T04:35:35;98595.31;;;18.27;57.32
48874;BME280;66155;46.204;5.220;2023-05-07T04:40:36;98598.44;;;18.29;56.75
48874;BME280;66155;46.204;5.220;2023-05-07T04:45:37;98597.50;;;18.56;56.35
48874;BME280;66155;46.204;5.220;2023-05-07T04:50:37;98606.50;;;18.78;55.76
48874;BME280;66155;46.204;5.220;2023-05-07T04:55:38;98615.75;;;18.67;56.91
48874;BME280;66155;46.204;5.220;2023-05-07T05:00:39;98625.59;;;18.52;57.37
48874;BME280;66155;46.204;5.220;2023-05-07T05:05:39;98629.44;;;18.46;58.07
48874;BME280;66155;46.204;5.220;2023-05-07T05:10:40;98624.63;;;18.26;58.09
48874;BME280;66155;46.204;5.220;2023-05-07T05:15:41;98641.13;;;18.17;58.03
48874;BME280;66155;46.204;5.220;2023-05-07T05:20:42;98652.13;;;18.11;58.33
48874;BME280;66155;46.204;5.220;2023-05-07T05:25:42;98652.31;;;18.00;58.45
48874;BME280;66155;46.204;5.220;2023-05-07T05:30:43;98646.19;;;17.91;58.59
48874;BME280;66155;46.204;5.220;2023-05-07T05:35:43;98631.72;;;17.89;58.38
48874;BME280;66155;46.204;5.220;2023-05-07T05:40:44;98632.44;;;18.17;57.80
48874;BME280;66155;46.204;5.220;2023-05-07T05:45:44;98678.28;;;18.43;56.95
48874;BME280;66155;46.204;5.220;2023-05-07T05:50:45;98692.31;;;18.53;57.43
48874;BME280;66155;46.204;5.220;2023-05-07T05:55:46;98694.78;;;18.13;59.27
48874;BME280;66155;46.204;5.220;2023-05-07T06:00:46;98694.22;;;17.88;60.42
48874;BME280;66155;46.204;5.220;2023-05-07T06:05:48;98692.41;;;17.83;60.47
48874;BME280;66155;46.204;5.220;2023-05-07T06:10:49;98700.72;;;17.63;61.68
48874;BME280;66155;46.204;5.220;2023-05-07T06:15:49;98705.31;;;17.57;61.66
48874;BME280;66155;46.204;5.220;2023-05-07T06:20:51;98704.81;;;17.83;60.97
48874;BME280;66155;46.204;5.220;2023-05-07T06:25:52;98698.47;;;18.12;60.06
48874;BME280;66155;46.204;5.220;2023-05-07T06:30:52;98689.03;;;18.47;59.20
48874;BME280;66155;46.204;5.220;2023-05-07T06:35:53;98701.63;;;18.87;58.95
48874;BME280;66155;46.204;5.220;2023-05-07T06:40:53;98704.56;;;18.85;58.94
48874;BME280;66155;46.204;5.220;2023-05-07T06:45:56;98701.91;;;18.85;58.83
48874;BME280;66155;46.204;5.220;2023-05-07T06:50:57;98703.47;;;18.86;59.15
48874;BME280;66155;46.204;5.220;2023-05-07T06:55:58;98701.34;;;18.97;58.90
48874;BME280;66155;46.204;5.220;2023-05-07T07:00:58;98704.69;;;19.34;58.21
48874;BME280;66155;46.204;5.220;2023-05-07T07:05:59;98698.34;;;19.75;57.43
48874;BME280;66155;46.204;5.220;2023-05-07T07:10:59;98698.41;;;20.01;57.21
48874;BME280;66155;46.204;5.220;2023-05-07T07:16:00;98706.84;;;20.38;56.72
48874;BME280;66155;46.204;5.220;2023-05-07T07:21:00;98705.31;;;20.72;56.39
48874;BME280;66155;46.204;5.220;2023-05-07T07:26:01;98701.09;;;20.97;56.20
48874;BME280;66155;46.204;5.220;2023-05-07T07:31:01;98697.28;;;21.16;56.03
48874;BME280;66155;46.204;5.220;2023-05-07T07:36:02;98710.16;;;21.43;55.32
48874;BME280;66155;46.204;5.220;2023-05-07T07:41:02;98704.78;;;21.70;54.91
48874;BME280;66155;46.204;5.220;2023-05-07T07:46:03;98704.28;;;21.76;54.64
48874;BME280;66155;46.204;5.220;2023-05-07T07:51:04;98705.47;;;21.88;53.99
48874;BME280;66155;46.204;5.220;2023-05-07T07:56:04;98709.81;;;22.13;53.63
48874;BME280;66155;46.204;5.220;2023-05-07T08:01:08;98708.47;;;22.37;53.02
48874;BME280;66155;46.204;5.220;2023-05-07T08:06:08;98710.69;;;22.47;52.27
48874;BME280;66155;46.204;5.220;2023-05-07T08:11:09;98714.41;;;22.55;52.24
48874;BME280;66155;46.204;5.220;2023-05-07T08:16:09;98720.75;;;22.63;51.83
48874;BME280;66155;46.204;5.220;2023-05-07T08:21:10;98724.22;;;22.75;51.21
48874;BME280;66155;46.204;5.220;2023-05-07T08:26:11;98724.75;;;22.69;50.50
48874;BME280;66155;46.204;5.220;2023-05-07T08:31:11;98721.06;;;22.40;50.77
48874;BME280;66155;46.204;5.220;2023-05-07T08:36:12;98731.63;;;22.49;50.30
48874;BME280;66155;46.204;5.220;2023-05-07T08:41:12;98730.84;;;22.69;49.66
48874;BME280;66155;46.204;5.220;2023-05-07T08:46:17;98726.03;;;22.84;49.40
48874;BME280;66155;46.204;5.220;2023-05-07T08:51:20;98726.22;;;22.78;49.08
48874;BME280;66155;46.204;5.220;2023-05-07T08:56:20;98732.31;;;22.79;48.96
48874;BME280;66155;46.204;5.220;2023-05-07T09:01:21;98731.25;;;22.92;48.81
48874;BME280;66155;46.204;5.220;2023-05-07T09:06:21;98733.34;;;22.87;48.84
48874;BME280;66155;46.204;5.220;2023-05-07T09:11:23;98745.16;;;22.56;48.77
48874;BME280;66155;46.204;5.220;2023-05-07T09:16:29;98752.88;;;22.19;48.89
48874;BME280;66155;46.204;5.220;2023-05-07T09:21:33;98752.88;;;21.89;49.54
48874;BME280;66155;46.204;5.220;2023-05-07T09:26:33;98756.13;;;21.95;49.70
48874;BME280;66155;46.204;5.220;2023-05-07T09:31:37;98777.44;;;21.77;49.64
48874;BME280;66155;46.204;5.220;2023-05-07T09:36:38;98775.44;;;21.65;49.58
48874;BME280;66155;46.204;5.220;2023-05-07T09:41:46;98776.19;;;21.75;49.94
48874;BME280;66155;46.204;5.220;2023-05-07T09:46:53;98770.31;;;21.69;50.19
48874;BME280;66155;46.204;5.220;2023-05-07T09:51:54;98781.34;;;21.80;50.33
48874;BME280;66155;46.204;5.220;2023-05-07T09:56:55;98778.84;;;21.75;50.55
48874;BME280;66155;46.204;5.220;2023-05-07T10:02:00;98770.25;;;22.08;50.13
48874;BME280;66155;46.204;5.220;2023-05-07T10:07:02;98787.94;;;22.03;51.01
48874;BME280;66155;46.204;5.220;2023-05-07T10:12:05;98789.88;;;21.86;51.34
48874;BME280;66155;46.204;5.220;2023-05-07T10:17:05;98798.47;;;21.82;51.75
48874;BME280;66155;46.204;5.220;2023-05-07T10:22:08;98798.50;;;21.74;51.84
48874;BME280;66155;46.204;5.220;2023-05-07T10:27:10;98799.28;;;21.65;51.72
48874;BME280;66155;46.204;5.220;2023-05-07T10:37:19;98787.56;;;21.75;51.92
48874;BME280;66155;46.204;5.220;2023-05-07T10:42:20;98796.59;;;21.83;52.37
48874;BME280;66155;46.204;5.220;2023-05-07T10:47:20;98811.59;;;21.79;52.43
48874;BME280;66155;46.204;5.220;2023-05-07T10:52:23;98824.81;;;20.97;55.07
48874;BME280;66155;46.204;5.220;2023-05-07T10:57:36;98848.25;;;20.06;58.32
48874;BME280;66155;46.204;5.220;2023-05-07T11:08:01;98861.97;;;18.53;66.16
48874;BME280;66155;46.204;5.220;2023-05-07T11:13:01;98873.19;;;17.38;72.95
48874;BME280;66155;46.204;5.220;2023-05-07T11:18:02;98890.81;;;16.75;78.96
48874;BME280;66155;46.204;5.220;2023-05-07T11:23:03;98891.63;;;16.76;78.01
48874;BME280;66155;46.204;5.220;2023-05-07T11:28:06;98894.19;;;16.81;76.00
48874;BME280;66155;46.204;5.220;2023-05-07T11:33:07;98899.47;;;17.00;76.01
48874;BME280;66155;46.204;5.220;2023-05-07T11:38:08;98894.81;;;16.97;76.39
48874;BME280;66155;46.204;5.220;2023-05-07T11:43:11;98901.44;;;17.13;76.24
48874;BME280;66155;46.204;5.220;2023-05-07T11:48:13;98910.19;;;17.27;75.42
48874;BME280;66155;46.204;5.220;2023-05-07T11:53:14;98903.56;;;17.49;74.74
48874;BME280;66155;46.204;5.220;2023-05-07T11:58:21;98903.81;;;17.66;74.16
48874;BME280;66155;46.204;5.220;2023-05-07T12:03:21;98898.28;;;18.01;73.18
48874;BME280;66155;46.204;5.220;2023-05-07T12:08:22;98896.94;;;18.03;73.35
48874;BME280;66155;46.204;5.220;2023-05-07T12:13:24;98899.47;;;18.09;72.49
48874;BME280;66155;46.204;5.220;2023-05-07T12:18:25;98906.81;;;18.26;72.18
48874;BME280;66155;46.204;5.220;2023-05-07T12:23:26;98903.09;;;18.54;70.78
48874;BME280;66155;46.204;5.220;2023-05-07T12:28:26;98910.06;;;18.78;70.35
48874;BME280;66155;46.204;5.220;2023-05-07T12:33:27;98905.56;;;18.78;69.35
48874;BME280;66155;46.204;5.220;2023-05-07T12:38:34;98909.97;;;18.69;68.86
48874;BME280;66155;46.204;5.220;2023-05-07T12:43:38;98913.28;;;18.61;69.67
48874;BME280;66155;46.204;5.220;2023-05-07T12:48:43;98922.19;;;18.51;69.50
48874;BME280;66155;46.204;5.220;2023-05-07T12:53:44;98917.50;;;18.48;70.27
48874;BME280;66155;46.204;5.220;2023-05-07T12:58:48;98926.84;;;18.68;69.11
48874;BME280;66155;46.204;5.220;2023-05-07T13:03:48;98936.03;;;18.43;68.87
48874;BME280;66155;46.204;5.220;2023-05-07T13:08:50;98930.78;;;18.57;68.80
48874;BME280;66155;46.204;5.220;2023-05-07T13:13:50;98921.38;;;18.78;67.66
48874;BME280;66155;46.204;5.220;2023-05-07T13:18:51;98920.28;;;19.21;66.65
48874;BME280;66155;46.204;5.220;2023-05-07T13:23:51;98920.84;;;19.18;66.68
48874;BME280;66155;46.204;5.220;2023-05-07T13:28:55;98923.59;;;19.27;66.24
48874;BME280;66155;46.204;5.220;2023-05-07T13:33:56;98923.06;;;19.38;66.02
48874;BME280;66155;46.204;5.220;2023-05-07T13:38:56;98922.44;;;19.42;66.14
48874;BME280;66155;46.204;5.220;2023-05-07T13:43:59;98925.78;;;19.47;65.58
48874;BME280;66155;46.204;5.220;2023-05-07T13:49:00;98928.97;;;19.22;65.29
48874;BME280;66155;46.204;5.220;2023-05-07T13:54:00;98933.66;;;19.25;65.15
48874;BME280;66155;46.204;5.220;2023-05-07T13:59:01;98921.53;;;19.24;65.15
48874;BME280;66155;46.204;5.220;2023-05-07T14:04:02;98926.69;;;19.29;65.02
48874;BME280;66155;46.204;5.220;2023-05-07T14:09:02;98930.84;;;19.21;64.01
48874;BME280;66155;46.204;5.220;2023-05-07T14:14:03;98935.28;;;19.34;63.94
48874;BME280;66155;46.204;5.220;2023-05-07T14:19:03;98926.47;;;19.39;63.31
48874;BME280;66155;46.204;5.220;2023-05-07T14:24:06;98934.78;;;19.46;63.07
48874;BME280;66155;46.204;5.220;2023-05-07T14:29:07;98934.66;;;19.51;62.97
48874;BME280;66155;46.204;5.220;2023-05-07T14:34:07;98932.72;;;19.43;62.66
48874;BME280;66155;46.204;5.220;2023-05-07T14:39:07;98938.63;;;19.40;62.31
48874;BME280;66155;46.204;5.220;2023-05-07T14:44:08;98935.28;;;19.71;61.97
48874;BME280;66155;46.204;5.220;2023-05-07T14:49:08;98935.00;;;19.95;61.44
48874;BME280;66155;46.204;5.220;2023-05-07T14:54:16;98931.47;;;20.80;59.65
48874;BME280;66155;46.204;5.220;2023-05-07T14:59:18;98935.91;;;21.28;58.00
48874;BME280;66155;46.204;5.220;2023-05-07T15:04:21;98937.59;;;21.06;58.89
48874;BME280;66155;46.204;5.220;2023-05-07T15:09:21;98933.69;;;20.95;59.13
48874;BME280;66155;46.204;5.220;2023-05-07T15:14:22;98927.66;;;22.38;55.74
48874;BME280;66155;46.204;5.220;2023-05-07T15:19:22;98927.97;;;22.36;56.08
48874;BME280;66155;46.204;5.220;2023-05-07T15:24:25;98937.44;;;21.99;57.03
48874;BME280;66155;46.204;5.220;2023-05-07T15:29:25;98935.13;;;21.89;57.47
48874;BME280;66155;46.204;5.220;2023-05-07T15:34:25;98931.88;;;21.65;57.54
48874;BME280;66155;46.204;5.220;2023-05-07T15:39:26;98926.31;;;21.50;58.00
48874;BME280;66155;46.204;5.220;2023-05-07T15:44:26;98932.84;;;21.52;57.46
48874;BME280;66155;46.204;5.220;2023-05-07T15:49:28;98925.69;;;22.26;56.05
48874;BME280;66155;46.204;5.220;2023-05-07T15:54:29;98936.13;;;22.31;55.61
48874;BME280;66155;46.204;5.220;2023-05-07T15:59:29;98939.00;;;22.09;55.51
48874;BME280;66155;46.204;5.220;2023-05-07T16:04:30;98933.44;;;21.84;55.71
48874;BME280;66155;46.204;5.220;2023-05-07T16:09:31;98921.59;;;21.73;55.40
48874;BME280;66155;46.204;5.220;2023-05-07T16:14:31;98933.75;;;21.82;55.67
48874;BME280;66155;46.204;5.220;2023-05-07T16:19:32;98929.34;;;21.87;55.62
48874;BME280;66155;46.204;5.220;2023-05-07T16:24:32;98927.78;;;21.94;55.74
48874;BME280;66155;46.204;5.220;2023-05-07T16:29:33;98927.81;;;21.77;56.30
48874;BME280;66155;46.204;5.220;2023-05-07T16:34:33;98933.75;;;21.74;56.52
48874;BME280;66155;46.204;5.220;2023-05-07T16:39:33;98940.63;;;21.75;56.65
48874;BME280;66155;46.204;5.220;2023-05-07T16:44:34;98925.41;;;24.17;51.92
48874;BME280;66155;46.204;5.220;2023-05-07T16:49:34;98926.19;;;24.92;50.75
48874;BME280;66155;46.204;5.220;2023-05-07T16:54:35;98921.44;;;24.73;51.10
48874;BME280;66155;46.204;5.220;2023-05-07T16:59:38;98932.56;;;23.92;52.70
48874;BME280;66155;46.204;5.220;2023-05-07T17:04:38;98932.50;;;23.25;53.68
48874;BME280;66155;46.204;5.220;2023-05-07T17:09:39;98939.00;;;22.86;54.70
48874;BME280;66155;46.204;5.220;2023-05-07T17:14:40;98938.53;;;22.54;55.65
48874;BME280;66155;46.204;5.220;2023-05-07T17:19:40;98946.75;;;22.31;56.30
48874;BME280;66155;46.204;5.220;2023-05-07T17:24:40;98943.78;;;22.33;56.06
48874;BME280;66155;46.204;5.220;2023-05-07T17:29:41;98940.19;;;22.29;55.91
48874;BME280;66155;46.204;5.220;2023-05-07T17:34:41;98936.47;;;22.12;56.46
48874;BME280;66155;46.204;5.220;2023-05-07T17:39:42;98944.03;;;21.93;56.64
48874;BME280;66155;46.204;5.220;2023-05-07T17:44:42;98945.94;;;21.75;56.92
48874;BME280;66155;46.204;5.220;2023-05-07T17:49:42;98947.31;;;21.46;57.62
48874;BME280;66155;46.204;5.220;2023-05-07T17:54:43;98950.13;;;21.32;58.11
48874;BME280;66155;46.204;5.220;2023-05-07T17:59:44;98947.63;;;21.27;58.06
48874;BME280;66155;46.204;5.220;2023-05-07T18:04:44;98948.41;;;21.36;57.94
48874;BME280;66155;46.204;5.220;2023-05-07T18:09:45;98948.84;;;21.38;57.74
48874;BME280;66155;46.204;5.220;2023-05-07T18:14:45;98946.03;;;21.26;58.15
48874;BME280;66155;46.204;5.220;2023-05-07T18:19:46;98957.13;;;21.11;58.67
48874;BME280;66155;46.204;5.220;2023-05-07T18:24:47;98965.03;;;20.93;58.80
48874;BME280;66155;46.204;5.220;2023-05-07T18:29:47;98976.81;;;20.78;59.21
48874;BME280;66155;46.204;5.220;2023-05-07T18:34:48;98982.69;;;20.66;59.79
48874;BME280;66155;46.204;5.220;2023-05-07T18:39:48;98987.75;;;20.54;59.93
48874;BME280;66155;46.204;5.220;2023-05-07T18:44:49;98989.25;;;20.38;59.97
48874;BME280;66155;46.204;5.220;2023-05-07T18:49:49;98994.31;;;20.25;60.39
48874;BME280;66155;46.204;5.220;2023-05-07T18:54:50;99003.56;;;20.14;60.21
48874;BME280;66155;46.204;5.220;2023-05-07T18:59:56;98996.84;;;20.08;60.49
48874;BME280;66155;46.204;5.220;2023-05-07T19:04:57;99000.38;;;20.03;60.73
48874;BME280;66155;46.204;5.220;2023-05-07T19:09:57;99001.22;;;19.90;60.98
48874;BME280;66155;46.204;5.220;2023-05-07T19:14:58;99009.03;;;19.59;62.14
48874;BME280;66155;46.204;5.220;2023-05-07T19:19:58;99023.03;;;19.45;62.64
48874;BME280;66155;46.204;5.220;2023-05-07T19:24:59;99032.84;;;19.31;63.14
48874;BME280;66155;46.204;5.220;2023-05-07T19:29:59;99033.28;;;19.24;63.28
48874;BME280;66155;46.204;5.220;2023-05-07T19:35:00;99051.66;;;19.15;63.62
48874;BME280;66155;46.204;5.220;2023-05-07T19:40:00;99054.88;;;19.12;63.53
48874;BME280;66155;46.204;5.220;2023-05-07T19:45:04;99053.22;;;18.89;64.07
48874;BME280;66155;46.204;5.220;2023-05-07T19:50:06;99049.78;;;18.88;64.03
48874;BME280;66155;46.204;5.220;2023-05-07T19:55:06;99062.00;;;18.84;64.10
48874;BME280;66155;46.204;5.220;2023-05-07T20:00:08;99062.06;;;18.79;64.46
48874;BME280;66155;46.204;5.220;2023-05-07T20:05:08;99072.44;;;18.75;64.56
48874;BME280;66155;46.204;5.220;2023-05-07T20:10:10;99072.72;;;18.74;64.34
48874;BME280;66155;46.204;5.220;2023-05-07T20:15:11;99078.28;;;18.72;64.23
48874;BME280;66155;46.204;5.220;2023-05-07T20:20:11;99085.13;;;18.73;64.32
48874;BME280;66155;46.204;5.220;2023-05-07T20:25:12;99088.06;;;18.72;64.86
48874;BME280;66155;46.204;5.220;2023-05-07T20:30:14;99097.28;;;18.74;64.71
48874;BME280;66155;46.204;5.220;2023-05-07T20:35:14;99101.47;;;18.75;64.94
48874;BME280;66155;46.204;5.220;2023-05-07T20:40:15;99102.22;;;18.76;65.33
48874;BME280;66155;46.204;5.220;2023-05-07T20:45:15;99098.91;;;18.70;65.68
48874;BME280;66155;46.204;5.220;2023-05-07T20:50:16;99101.53;;;18.70;65.79
48874;BME280;66155;46.204;5.220;2023-05-07T20:55:16;99092.16;;;18.64;66.34
48874;BME280;66155;46.204;5.220;2023-05-07T21:00:17;99101.41;;;18.61;66.17
48874;BME280;66155;46.204;5.220;2023-05-07T21:05:17;99093.78;;;18.60;66.37
48874;BME280;66155;46.204;5.220;2023-05-07T21:10:18;99092.72;;;18.61;66.12
48874;BME280;66155;46.204;5.220;2023-05-07T21:15:18;99091.47;;;18.58;66.06
48874;BME280;66155;46.204;5.220;2023-05-07T21:20:19;99096.31;;;18.51;66.58
48874;BME280;66155;46.204;5.220;2023-05-07T21:25:19;99087.56;;;18.37;67.07
48874;BME280;66155;46.204;5.220;2023-05-07T21:30:20;99088.16;;;18.34;67.18
48874;BME280;66155;46.204;5.220;2023-05-07T21:35:20;99094.78;;;18.31;67.15
48874;BME280;66155;46.204;5.220;2023-05-07T21:40:21;99103.19;;;18.33;66.52
48874;BME280;66155;46.204;5.220;2023-05-07T21:45:21;99099.00;;;18.32;66.70
48874;BME280;66155;46.204;5.220;2023-05-07T21:50:22;99107.13;;;18.36;66.60
48874;BME280;66155;46.204;5.220;2023-05-07T21:55:22;99105.81;;;18.33;67.06
48874;BME280;66155;46.204;5.220;2023-05-07T22:00:23;99111.09;;;18.33;67.08
48874;BME280;66155;46.204;5.220;2023-05-07T22:05:23;99113.44;;;18.35;67.32
48874;BME280;66155;46.204;5.220;2023-05-07T22:10:24;99112.19;;;18.32;67.62
48874;BME280;66155;46.204;5.220;2023-05-07T22:15:24;99109.53;;;18.32;67.69
48874;BME280;66155;46.204;5.220;2023-05-07T22:20:25;99099.19;;;18.36;67.84
48874;BME280;66155;46.204;5.220;2023-05-07T22:25:25;99112.09;;;18.37;67.70
48874;BME280;66155;46.204;5.220;2023-05-07T22:30:26;99107.59;;;18.38;67.96
48874;BME280;66155;46.204;5.220;2023-05-07T22:35:26;99108.38;;;18.38;67.74
48874;BME280;66155;46.204;5.220;2023-05-07T22:40:27;99118.16;;;18.38;67.86
48874;BME280;66155;46.204;5.220;2023-05-07T22:45:28;99111.69;;;18.30;67.79
48874;BME280;66155;46.204;5.220;2023-05-07T22:50:28;99104.75;;;18.15;67.78
48874;BME280;66155;46.204;5.220;2023-05-07T22:55:29;99103.84;;;17.87;68.89
48874;BME280;66155;46.204;5.220;2023-05-07T23:00:29;99098.91;;;17.80;68.63
48874;BME280;66155;46.204;5.220;2023-05-07T23:05:30;99100.22;;;17.78;68.91
48874;BME280;66155;46.204;5.220;2023-05-07T23:10:30;99109.94;;;17.82;68.63
48874;BME280;66155;46.204;5.220;2023-05-07T23:15:33;99102.00;;;17.88;68.36
48874;BME280;66155;46.204;5.220;2023-05-07T23:20:34;99098.50;;;17.92;68.29
48874;BME280;66155;46.204;5.220;2023-05-07T23:25:35;99098.50;;;17.92;68.48
48874;BME280;66155;46.204;5.220;2023-05-07T23:30:35;99092.16;;;17.93;68.88
48874;BME280;66155;46.204;5.220;2023-05-07T23:35:35;99096.06;;;17.96;68.94
48874;BME280;66155;46.204;5.220;2023-05-07T23:40:39;99100.00;;;17.98;69.10
48874;BME280;66155;46.204;5.220;2023-05-07T23:45:39;99099.22;;;17.98;69.30
48874;BME280;66155;46.204;5.220;2023-05-07T23:50:40;99097.78;;;18.05;69.25
48874;BME280;66155;46.204;5.220;2023-05-07T23:55:40;99086.69;;;18.09;69.53
